Airport View

Enter AWOS ICAO identifier for current METAR.

ex. KFNL

KBFI 240953Z 00000KT 2SM BR BKN007 OVC011 08/06 A3052 RMK AO2 RAB0855E43 SLP333 P0006 T00780061

24 Jan 2019 10:49

Phone: 206-763-6904

Other Area AWOS: KRNT - KSEA - KPWT - KTIW

TAF AMD KBFI 240902Z 2409/2506 00000KT P6SM VCSH SCT008 BKN011 OVC024 TEMPO 2409/2413 3SM -DZ BKN008 FM241300 VRB03KT P6SM BKN010 OVC015 FM241800 VRB03KT P6SM SCT012 BKN020 OVC035 FM242200 VRB03KT P6SM SCT030 BKN045